createdAt,value
2019-06-10T00:00:52.016Z,76.19
2019-06-10T00:04:09.619Z,76.44
2019-06-10T00:07:23.966Z,76.40
2019-06-10T00:10:41.773Z,76.62
2019-06-10T00:13:57.123Z,76.85
2019-06-10T00:17:12.396Z,77.34
2019-06-10T00:20:27.277Z,77.21
2019-06-10T00:23:42.445Z,77.48
2019-06-10T00:27:00.306Z,77.44
2019-06-10T00:30:17.202Z,77.71
2019-06-10T00:33:32.669Z,77.68
2019-06-10T00:36:47.491Z,77.57
2019-06-10T00:40:05.530Z,77.47
2019-06-10T00:43:21.412Z,77.69
2019-06-10T00:46:36.627Z,78.50
2019-06-10T00:49:52.371Z,78.39
2019-06-10T00:53:09.173Z,78.23
2019-06-10T00:56:25.370Z,78.36
2019-06-10T00:59:41.403Z,78.63
2019-06-10T01:02:57.218Z,78.66
2019-06-10T01:06:15.145Z,78.70
2019-06-10T01:09:31.054Z,78.83
2019-06-10T01:12:46.390Z,78.69
2019-06-10T01:16:03.530Z,78.62
2019-06-10T01:19:21.647Z,78.82
2019-06-10T01:22:37.076Z,79.34
2019-06-10T01:25:52.307Z,79.14
2019-06-10T01:29:07.655Z,79.54
2019-06-10T01:32:23.100Z,79.48
2019-06-10T01:35:41.602Z,79.48
2019-06-10T01:38:57.028Z,79.75
2019-06-10T01:42:14.418Z,79.82
2019-06-10T01:45:31.219Z,79.87
2019-06-10T01:48:48.333Z,79.97
2019-06-10T01:52:03.827Z,79.94
2019-06-10T01:55:21.898Z,79.87
2019-06-10T01:58:37.231Z,80.12
2019-06-10T02:02:01.759Z,80.49
2019-06-10T02:05:19.394Z,80.23
2019-06-10T02:08:34.983Z,80.58
2019-06-10T02:11:51.360Z,80.92
2019-06-10T02:15:06.442Z,81.39
2019-06-10T02:18:22.510Z,81.40
2019-06-10T02:21:36.866Z,81.81
2019-06-10T02:24:52.101Z,81.38
2019-06-10T02:28:08.110Z,81.22
2019-06-10T02:31:30.185Z,80.55
2019-06-10T02:34:53.175Z,79.95
2019-06-10T02:37:57.148Z,79.26
2019-06-10T02:41:16.350Z,78.60
2019-06-10T02:44:33.049Z,78.46
2019-06-10T02:47:46.137Z,78.53
2019-06-10T02:51:07.302Z,78.17
2019-06-10T02:54:30.375Z,78.89
2019-06-10T02:57:40.806Z,78.72
2019-06-10T03:00:57.528Z,78.96
2019-06-10T03:04:13.981Z,79.25
2019-06-10T03:07:33.706Z,79.22
2019-06-10T03:10:46.430Z,79.50
2019-06-10T03:14:02.583Z,79.47
2019-06-10T03:17:19.935Z,79.08
2019-06-10T03:20:35.427Z,78.78
2019-06-10T03:23:53.123Z,78.82
2019-06-10T03:27:08.692Z,79.21
2019-06-10T03:30:37.504Z,79.09
2019-06-10T03:33:46.382Z,79.24
2019-06-10T03:36:57.556Z,79.34
2019-06-10T03:40:13.166Z,79.21
2019-06-10T03:43:28.879Z,79.44
2019-06-10T03:46:44.126Z,79.53
2019-06-10T03:49:58.918Z,79.97
2019-06-10T03:53:14.130Z,79.79
2019-06-10T03:56:32.051Z,79.97
2019-06-10T03:59:47.562Z,80.00
2019-06-10T04:03:02.804Z,80.02
2019-06-10T04:06:19.607Z,80.09
2019-06-10T04:09:34.460Z,80.11
2019-06-10T04:12:49.664Z,80.05
2019-06-10T04:16:04.920Z,80.22
2019-06-10T04:19:23.580Z,80.64
2019-06-10T04:22:38.088Z,80.43
2019-06-10T04:25:52.800Z,80.14
2019-06-10T04:29:08.006Z,79.76
2019-06-10T04:32:24.044Z,79.32
2019-06-10T04:35:40.036Z,78.43
2019-06-10T04:38:54.775Z,78.74
2019-06-10T04:42:10.003Z,77.87
2019-06-10T04:45:26.198Z,77.68
2019-06-10T04:48:42.671Z,77.92
2019-06-10T04:52:00.253Z,77.43
2019-06-10T04:55:15.482Z,75.69
2019-06-10T04:58:33.083Z,76.08
2019-06-10T05:01:47.768Z,76.33
2019-06-10T05:05:03.885Z,75.89
2019-06-10T05:08:19.195Z,75.76
2019-06-10T05:11:35.086Z,76.18
2019-06-10T05:16:44.877Z,76.00
2019-06-10T05:19:59.447Z,75.89
2019-06-10T05:23:15.033Z,75.30
2019-06-10T05:26:31.116Z,75.10
2019-06-10T05:29:46.360Z,74.75
2019-06-10T05:33:03.008Z,74.44
2019-06-10T05:36:17.782Z,73.94
2019-06-10T05:39:35.067Z,74.14
2019-06-10T05:42:49.707Z,73.56
2019-06-10T05:46:04.374Z,73.66
2019-06-10T05:49:19.472Z,73.41
2019-06-10T05:52:35.747Z,73.56
2019-06-10T05:55:52.836Z,73.03
2019-06-10T05:59:07.532Z,72.92
2019-06-10T06:02:22.424Z,73.61
2019-06-10T06:05:38.169Z,73.20
2019-06-10T06:08:53.698Z,73.81
2019-06-10T06:12:11.140Z,73.80
2019-06-10T06:15:25.467Z,73.83
2019-06-10T06:18:42.302Z,73.69
2019-06-10T06:21:58.286Z,73.15
2019-06-10T06:25:15.073Z,73.76
2019-06-10T06:28:32.922Z,74.23
2019-06-10T06:31:46.840Z,73.73
2019-06-10T06:35:02.498Z,74.45
2019-06-10T06:38:22.259Z,73.91
2019-06-10T06:41:37.587Z,73.24
2019-06-10T06:44:54.556Z,73.87
2019-06-10T06:48:12.353Z,72.86
2019-06-10T06:51:38.064Z,73.77
2019-06-10T06:54:44.267Z,72.39
2019-06-10T06:57:59.464Z,71.39
2019-06-10T07:01:14.952Z,70.84
2019-06-10T07:04:32.684Z,70.55
2019-06-10T07:07:47.110Z,70.72
2019-06-10T07:11:02.998Z,69.41
2019-06-10T07:14:18.789Z,69.79
2019-06-10T07:17:36.208Z,70.00
2019-06-10T07:20:53.923Z,69.95
2019-06-10T07:24:08.856Z,69.44
2019-06-10T07:27:23.594Z,70.77
2019-06-10T07:30:41.539Z,69.42
2019-06-10T07:33:56.597Z,69.03
2019-06-10T07:37:13.017Z,70.36
2019-06-10T07:40:28.373Z,69.11
2019-06-10T07:43:49.106Z,69.14
2019-06-10T07:47:02.441Z,68.81
2019-06-10T07:50:17.686Z,69.12
2019-06-10T07:53:34.723Z,68.59
2019-06-10T07:56:50.650Z,68.30
2019-06-10T08:00:07.624Z,67.64
2019-06-10T08:03:22.616Z,67.25
2019-06-10T08:06:37.945Z,67.15
2019-06-10T08:09:53.336Z,67.73
2019-06-10T08:13:08.642Z,66.18
2019-06-10T08:16:23.887Z,67.28
2019-06-10T08:19:43.119Z,66.40
2019-06-10T08:22:57.818Z,66.05
2019-06-10T08:26:13.157Z,65.73
2019-06-10T08:29:28.897Z,65.62
2019-06-10T08:32:46.865Z,65.17
2019-06-10T08:36:13.562Z,64.87
2019-06-10T08:39:28.938Z,64.05
2019-06-10T08:42:47.453Z,64.49
2019-06-10T08:46:03.035Z,64.13
2019-06-10T08:49:18.145Z,63.58
2019-06-10T08:52:49.533Z,63.38
2019-06-10T08:55:53.425Z,63.08
2019-06-10T08:59:07.280Z,63.85
2019-06-10T09:02:23.189Z,63.85
2019-06-10T09:05:40.917Z,63.31
2019-06-10T09:08:55.842Z,62.08
2019-06-10T09:12:28.350Z,62.18
2019-06-10T09:15:28.816Z,61.07
2019-06-10T09:18:48.148Z,59.05
2019-06-10T09:22:03.489Z,59.41
2019-06-10T09:25:19.131Z,57.96
2019-06-10T09:28:34.220Z,58.24
2019-06-10T09:31:53.249Z,58.80
2019-06-10T09:35:07.483Z,58.64
2019-06-10T09:38:22.552Z,57.80
2019-06-10T09:41:43.210Z,57.83
2019-06-10T09:44:56.256Z,58.16
2019-06-10T09:48:13.281Z,58.97
2019-06-10T09:51:28.431Z,59.66
2019-06-10T09:54:47.953Z,59.86
2019-06-10T09:58:03.086Z,59.10
2019-06-10T10:01:17.014Z,58.97
2019-06-10T10:04:32.852Z,58.89
2019-06-10T10:07:51.663Z,59.40
2019-06-10T10:11:05.394Z,57.59
2019-06-10T10:14:22.961Z,57.47
2019-06-10T10:17:38.221Z,55.63
2019-06-10T10:20:58.388Z,53.89
2019-06-10T10:24:14.972Z,54.18
2019-06-10T10:27:28.117Z,54.26
2019-06-10T10:30:45.474Z,53.88
2019-06-10T10:33:59.450Z,54.49
2019-06-10T10:37:14.328Z,53.28
2019-06-10T10:40:32.675Z,54.24
2019-06-10T10:43:51.306Z,53.92
2019-06-10T10:47:05.303Z,54.04
2019-06-10T10:50:22.502Z,55.10
2019-06-10T10:53:37.432Z,54.58
2019-06-10T10:56:58.385Z,56.25
2019-06-10T11:00:12.420Z,56.67
2019-06-10T11:03:27.302Z,56.05
2019-06-10T11:06:43.048Z,55.59
2019-06-10T11:09:58.650Z,57.02
2019-06-10T11:13:13.552Z,57.33
2019-06-10T11:16:29.593Z,56.44
2019-06-10T11:19:47.262Z,57.04
2019-06-10T11:23:03.040Z,57.04
2019-06-10T11:26:17.909Z,56.79
2019-06-10T11:29:33.047Z,56.68
2019-06-10T11:32:50.672Z,56.96
2019-06-10T11:36:07.500Z,56.60
2019-06-10T11:39:24.191Z,56.21
2019-06-10T11:42:42.804Z,56.12
2019-06-10T11:46:03.102Z,56.76
2019-06-10T11:49:14.090Z,56.03
2019-06-10T11:52:29.042Z,56.15
2019-06-10T11:55:43.921Z,54.74
2019-06-10T11:59:05.364Z,53.88
2019-06-10T12:02:17.270Z,55.47
2019-06-10T12:05:32.760Z,55.35
2019-06-10T12:08:48.932Z,54.56
2019-06-10T12:12:03.937Z,55.30
2019-06-10T12:20:03.345Z,56.57
2019-06-10T12:23:18.814Z,56.42
2019-06-10T12:26:33.719Z,57.46
2019-06-10T12:29:50.037Z,57.72
2019-06-10T12:33:05.765Z,56.75
2019-06-10T12:36:23.572Z,57.74
2019-06-10T12:39:39.288Z,56.95
2019-06-10T12:42:56.738Z,55.82
2019-06-10T12:46:12.767Z,57.28
2019-06-10T12:49:27.715Z,57.21
2019-06-10T12:52:44.029Z,56.81
2019-06-10T12:56:00.531Z,55.86
2019-06-10T12:59:15.539Z,56.66
2019-06-10T13:02:34.651Z,57.24
2019-06-10T13:05:50.009Z,55.64
2019-06-10T13:09:08.094Z,55.24
2019-06-10T13:12:24.283Z,55.56
2019-06-10T13:15:43.169Z,55.28
2019-06-10T13:18:57.895Z,54.58
2019-06-10T13:22:12.715Z,55.55
2019-06-10T13:25:27.961Z,55.20
2019-06-10T13:28:45.955Z,56.36
2019-06-10T13:32:03.231Z,56.38
2019-06-10T13:35:18.976Z,56.00
2019-06-10T13:38:34.781Z,56.22
2019-06-10T13:41:52.828Z,58.13
2019-06-10T13:45:09.511Z,57.55
2019-06-10T13:48:26.110Z,57.99
2019-06-10T13:51:44.016Z,59.02
2019-06-10T13:55:00.652Z,57.98
2019-06-10T13:58:16.624Z,58.65
2019-06-10T14:01:34.897Z,59.45
2019-06-10T14:04:48.035Z,59.47
2019-06-10T14:08:06.868Z,60.82
2019-06-10T14:11:24.417Z,62.59
2019-06-10T14:14:42.396Z,63.71
2019-06-10T14:17:57.818Z,64.50
2019-06-10T14:21:18.223Z,65.81
2019-06-10T14:24:33.098Z,66.07
2019-06-10T14:27:48.551Z,66.98
2019-06-10T14:31:14.958Z,67.51
2019-06-10T14:34:22.502Z,68.10
2019-06-10T14:37:39.257Z,68.26
2019-06-10T14:40:54.044Z,68.60
2019-06-10T14:44:10.681Z,68.79
2019-06-10T14:47:26.710Z,69.33
2019-06-10T14:50:43.552Z,70.07
2019-06-10T14:53:59.720Z,71.28
2019-06-10T14:57:15.487Z,70.96
2019-06-10T15:00:33.291Z,71.42
2019-06-10T15:03:48.217Z,71.24
2019-06-10T15:07:03.877Z,71.05
2019-06-10T15:10:20.032Z,71.67
2019-06-10T15:13:36.328Z,71.90
2019-06-10T15:16:53.376Z,71.72
2019-06-10T15:20:09.609Z,71.20
2019-06-10T15:23:24.511Z,69.44
2019-06-10T15:26:42.253Z,69.39
2019-06-10T15:29:58.233Z,68.73
2019-06-10T15:33:16.581Z,67.81
2019-06-10T15:36:32.674Z,66.96
2019-06-10T15:39:58.057Z,66.23
2019-06-10T15:43:18.099Z,66.44
2019-06-10T15:46:34.249Z,65.48
2019-06-10T15:49:49.192Z,65.72
2019-06-10T15:53:04.579Z,66.30
2019-06-10T15:56:31.314Z,65.57
2019-06-10T15:59:37.748Z,64.36
2019-06-10T16:02:52.801Z,64.79
2019-06-10T16:06:07.803Z,64.15
2019-06-10T16:09:22.571Z,63.58
2019-06-10T16:12:39.379Z,64.27
2019-06-10T16:15:55.637Z,63.65
2019-06-10T16:19:14.316Z,64.27
2019-06-10T16:22:29.082Z,63.97
2019-06-10T16:25:43.864Z,63.40
2019-06-10T16:28:59.528Z,63.16
2019-06-10T16:32:14.692Z,63.37
2019-06-10T16:35:32.261Z,62.85
2019-06-10T16:38:47.419Z,63.57
2019-06-10T16:42:03.793Z,62.89
2019-06-10T16:45:24.927Z,62.41
2019-06-10T16:48:37.305Z,62.99
2019-06-10T16:51:52.271Z,62.02
2019-06-10T16:55:07.882Z,62.00
2019-06-10T16:58:26.503Z,61.53
2019-06-10T17:01:42.602Z,61.96
2019-06-10T17:04:58.626Z,63.00
2019-06-10T17:08:14.342Z,63.45
2019-06-10T17:11:30.436Z,61.46
2019-06-10T17:14:45.628Z,61.72
2019-06-10T17:18:02.885Z,60.89
2019-06-10T17:21:24.142Z,62.17
2019-06-10T17:24:37.958Z,61.38
2019-06-10T17:27:52.962Z,62.51
2019-06-10T17:31:08.068Z,62.14
2019-06-10T17:34:25.956Z,62.49
2019-06-10T17:37:43.079Z,62.93
2019-06-10T17:40:57.809Z,63.50
2019-06-10T17:44:13.461Z,63.30
2019-06-10T17:47:31.595Z,63.95
2019-06-10T17:50:47.172Z,64.13
2019-06-10T17:54:37.688Z,64.15
2019-06-10T17:57:53.030Z,65.06
2019-06-10T18:01:08.219Z,65.18
2019-06-10T18:04:25.547Z,65.29
2019-06-10T18:07:41.846Z,65.46
2019-06-10T18:10:56.853Z,65.60
2019-06-10T18:14:13.773Z,64.06
2019-06-10T18:17:31.168Z,64.32
2019-06-10T18:20:48.425Z,64.93
2019-06-10T18:24:08.126Z,64.09
2019-06-10T18:27:22.046Z,64.94
2019-06-10T18:30:37.796Z,64.61
2019-06-10T18:33:53.610Z,65.01
2019-06-10T18:37:08.779Z,65.35
2019-06-10T18:40:23.992Z,66.11
2019-06-10T18:43:40.961Z,66.61
2019-06-10T18:47:14.258Z,67.03
2019-06-10T18:50:30.294Z,67.48
2019-06-10T18:53:46.151Z,68.26
2019-06-10T18:57:02.936Z,68.21
2019-06-10T19:00:22.907Z,68.37
2019-06-10T19:03:39.661Z,68.48
2019-06-10T19:06:55.260Z,68.53
2019-06-10T19:10:12.466Z,68.91
2019-06-10T19:13:29.526Z,68.93
2019-06-10T19:16:45.639Z,69.17
2019-06-10T19:20:03.937Z,69.47
2019-06-10T19:23:18.579Z,69.68
2019-06-10T19:26:36.773Z,70.04
2019-06-10T19:29:54.612Z,70.49
2019-06-10T19:33:09.616Z,70.59
2019-06-10T19:36:24.512Z,70.92
2019-06-10T19:39:46.319Z,71.08
2019-06-10T19:42:56.845Z,71.08
2019-06-10T19:46:12.891Z,71.49
2019-06-10T19:49:29.100Z,71.96
2019-06-10T19:52:45.460Z,72.29
2019-06-10T19:56:02.535Z,72.58
2019-06-10T19:59:17.276Z,72.68
2019-06-10T20:02:34.227Z,72.54
2019-06-10T20:05:52.812Z,72.38
2019-06-10T20:09:07.664Z,72.32
2019-06-10T20:12:23.051Z,72.43
2019-06-10T20:15:39.459Z,72.64
2019-06-10T20:18:55.322Z,72.76
2019-06-10T20:22:12.229Z,72.33
2019-06-10T20:25:27.570Z,72.26
2019-06-10T20:28:43.734Z,72.43
2019-06-10T20:31:59.187Z,72.35
2019-06-10T20:35:14.329Z,72.37
2019-06-10T20:38:29.069Z,72.36
2019-06-10T20:41:49.430Z,72.52
2019-06-10T20:45:04.584Z,72.21
2019-06-10T20:48:17.889Z,72.49
2019-06-10T20:51:40.609Z,72.21
2019-06-10T20:54:53.253Z,72.09
2019-06-10T20:58:08.604Z,72.52
2019-06-10T21:01:25.337Z,72.49
2019-06-10T21:04:41.665Z,72.61
2019-06-10T21:07:58.277Z,73.58
2019-06-10T21:11:14.264Z,73.85
2019-06-10T21:16:46.405Z,73.53
2019-06-10T21:20:03.379Z,73.73
2019-06-10T21:23:18.261Z,74.49
2019-06-10T21:26:32.890Z,74.29
2019-06-10T21:29:51.067Z,74.24
2019-06-10T21:33:07.741Z,74.54
2019-06-10T21:36:23.811Z,74.81
2019-06-10T21:39:39.324Z,74.85
2019-06-10T21:42:54.813Z,75.07
2019-06-10T21:46:10.085Z,75.04
2019-06-10T21:49:25.325Z,75.46
2019-06-10T21:52:44.082Z,75.66
2019-06-10T21:55:58.980Z,76.13
2019-06-10T21:59:15.317Z,76.02
2019-06-10T22:02:32.393Z,76.01
2019-06-10T22:05:47.826Z,76.15
2019-06-10T22:09:04.222Z,76.11
2019-06-10T22:12:19.366Z,75.95
2019-06-10T22:15:34.164Z,75.90
2019-06-10T22:18:50.777Z,76.48
2019-06-10T22:22:05.999Z,76.30
2019-06-10T22:25:22.361Z,76.40
2019-06-10T22:28:36.943Z,76.31
2019-06-10T22:31:55.061Z,76.67
2019-06-10T22:35:12.324Z,76.58
2019-06-10T22:38:27.765Z,76.53
2019-06-10T22:41:43.477Z,77.30
2019-06-10T22:45:00.213Z,77.32
2019-06-10T22:48:16.875Z,77.25
2019-06-10T22:51:32.947Z,77.69
2019-06-10T22:54:47.872Z,77.73
2019-06-10T22:58:06.212Z,78.01
2019-06-10T23:01:31.617Z,78.24
2019-06-10T23:04:37.985Z,78.37
2019-06-10T23:07:54.474Z,78.67
2019-06-10T23:11:12.929Z,78.39
2019-06-10T23:14:27.166Z,78.68
2019-06-10T23:17:42.452Z,78.77
2019-06-10T23:20:59.319Z,78.70
2019-06-10T23:24:14.836Z,79.21
2019-06-10T23:27:32.822Z,79.34
2019-06-10T23:30:48.033Z,79.56
2019-06-10T23:34:02.852Z,79.84
2019-06-10T23:37:18.033Z,79.44
2019-06-10T23:40:33.057Z,80.09
2019-06-10T23:43:48.004Z,80.56
2019-06-10T23:47:04.039Z,80.56
2019-06-10T23:50:22.298Z,80.45
2019-06-10T23:53:38.315Z,80.80
2019-06-10T23:56:54.415Z,80.87
